Stanley, Falkland Islands

7:20 AM FKST on August 30, 2014 (GMT -0300)
McKay Close | Change Station
CLOSE
Current Station
Personal Weather Station
Location: Stanley, EAST FALKLAND
Elevation: 121 ft
Nearby Weather Stations

Elev 121 ft 51.70 °S, 57.84 °W | Updated 19 minutes ago

Scattered Clouds
Scattered Clouds
33.9 °F
Feels Like 29 °F
N
6.0
Wind Variable Wind from ENE
Gusts 9.0 mph

Today
High -- | Low -- °F
--% Chance of Precip.
Yesterday
High -- | Low -- °F
Precip. -- in
7:32 AM 6:12 PM
Waxing Crescent, 21% visible
Pressure 30.06 in
Visibility 6.2 miles
Clouds Few 2600 ft
Scattered Clouds 16000 ft
Windchill 29 °F
Dew Point 30 °F
Humidity 87%
Rainfall 0.00 in
Snow Depth Not available.
UV 0.0 out of 12
Pollen Not available.
Air Quality Not available.
Flu Activity Not available.
METAR EGYP 300950Z 06007KT 9999 FEW026 SCT160 00/M02 Q1018 BLU NOSIG

More Conditions Fewer Conditions

Pressure 30.06 in
Visibility 6.2 miles
Clouds Few 2600 ft
Scattered Clouds 16000 ft
Windchill 29 °F
Dew Point 30 °F
Humidity 87%
Rainfall 0.00 in
Snow Depth Not available.
UV 0.0 out of 12
Pollen Not available.
Air Quality Not available.
Flu Activity Not available.
METAR EGYP 300950Z 06007KT 9999 FEW026 SCT160 00/M02 Q1018 BLU NOSIG

More Conditions Fewer Conditions

10-Day Weather Forecast

Almanac

Astronomy

Aug. 30, 2014 Rise Set
Actual Time 7:32 AM FKST 6:12 PM FKST
Civil Twilight 6:58 AM FKST 6:45 PM FKST
Nautical Twilight 6:19 AM FKST 7:24 PM FKST
Astronomical Twilight 5:40 AM FKST 8:03 PM FKST
Moon 9:20 AM FKST 11:51 PM FKST
Length of Visible Light 11h 47m
Length of Day
10h 39m
Tomorrow will be 3m 46s longer.
Waxing Crescent, 21% of the Moon is Illuminated
Today
Waxing Crescent
Sep 2
First Quarter
Sep 8
Full
Sep 15
Last Quarter
Sep 24
New

Yesterday's Extremes

Country Highs Country Lows

Community

WunderPhotos

Upload Photos

1,748,481 photos uploaded!

Nearby

Snow Depth

Not available.

Earthquake Activity

City Distance Mag. Time & Date
No recent earthquake activity has been reported nearby.
Minimum magnitude displayed is 2.5.

Coastal Water Temperatures

Place Temperature
No Stations Reporting

Nearby Weather Stations